sensor_id;sensor_type;location;lat;lon;timestamp;P1;durP1;ratioP1;P2;durP2;ratioP2
71610;SDS011;59459;51.172;6.682;2022-12-29T00:00:47;1.40;;;0.40;;
71610;SDS011;59459;51.172;6.682;2022-12-29T00:03:12;1.63;;;0.60;;
71610;SDS011;59459;51.172;6.682;2022-12-29T00:05:37;1.93;;;0.40;;
71610;SDS011;59459;51.172;6.682;2022-12-29T00:08:03;1.47;;;0.50;;
71610;SDS011;59459;51.172;6.682;2022-12-29T00:10:28;2.33;;;0.60;;
71610;SDS011;59459;51.172;6.682;2022-12-29T00:12:53;0.80;;;0.40;;
71610;SDS011;59459;51.172;6.682;2022-12-29T00:15:37;1.00;;;0.40;;
71610;SDS011;59459;51.172;6.682;2022-12-29T00:18:02;0.83;;;0.40;;
71610;SDS011;59459;51.172;6.682;2022-12-29T00:20:27;1.43;;;0.50;;
71610;SDS011;59459;51.172;6.682;2022-12-29T00:23:11;1.85;;;0.40;;
71610;SDS011;59459;51.172;6.682;2022-12-29T00:25:55;0.98;;;0.43;;
71610;SDS011;59459;51.172;6.682;2022-12-29T00:28:39;1.03;;;0.40;;
71610;SDS011;59459;51.172;6.682;2022-12-29T00:31:30;2.70;;;0.40;;
71610;SDS011;59459;51.172;6.682;2022-12-29T00:34:14;1.27;;;0.40;;
71610;SDS011;59459;51.172;6.682;2022-12-29T00:36:58;1.05;;;0.45;;
71610;SDS011;59459;51.172;6.682;2022-12-29T00:39:23;3.43;;;0.50;;
71610;SDS011;59459;51.172;6.682;2022-12-29T00:42:07;0.80;;;0.40;;
71610;SDS011;59459;51.172;6.682;2022-12-29T00:44:52;1.50;;;0.50;;
71610;SDS011;59459;51.172;6.682;2022-12-29T00:47:17;1.00;;;0.33;;
71610;SDS011;59459;51.172;6.682;2022-12-29T00:49:42;1.43;;;0.50;;
71610;SDS011;59459;51.172;6.682;2022-12-29T00:52:08;0.90;;;0.40;;
71610;SDS011;59459;51.172;6.682;2022-12-29T00:54:37;0.65;;;0.40;;
71610;SDS011;59459;51.172;6.682;2022-12-29T00:57:03;1.10;;;0.40;;
71610;SDS011;59459;51.172;6.682;2022-12-29T00:59:30;1.73;;;0.40;;
71610;SDS011;59459;51.172;6.682;2022-12-29T01:01:55;0.90;;;0.40;;
71610;SDS011;59459;51.172;6.682;2022-12-29T01:04:21;0.60;;;0.37;;
71610;SDS011;59459;51.172;6.682;2022-12-29T01:06:46;1.15;;;0.40;;
71610;SDS011;59459;51.172;6.682;2022-12-29T01:09:12;0.80;;;0.33;;
71610;SDS011;59459;51.172;6.682;2022-12-29T01:11:55;0.98;;;0.50;;
71610;SDS011;59459;51.172;6.682;2022-12-29T01:14:21;0.80;;;0.30;;
71610;SDS011;59459;51.172;6.682;2022-12-29T01:16:46;0.70;;;0.43;;
71610;SDS011;59459;51.172;6.682;2022-12-29T01:19:12;0.70;;;0.40;;
71610;SDS011;59459;51.172;6.682;2022-12-29T01:21:38;0.77;;;0.40;;
71610;SDS011;59459;51.172;6.682;2022-12-29T01:24:03;2.30;;;0.53;;
71610;SDS011;59459;51.172;6.682;2022-12-29T01:26:28;0.47;;;0.30;;
71610;SDS011;59459;51.172;6.682;2022-12-29T01:28:54;1.57;;;0.30;;
71610;SDS011;59459;51.172;6.682;2022-12-29T01:31:19;1.33;;;0.30;;
71610;SDS011;59459;51.172;6.682;2022-12-29T01:33:44;0.60;;;0.40;;
71610;SDS011;59459;51.172;6.682;2022-12-29T01:36:10;1.30;;;0.40;;
71610;SDS011;59459;51.172;6.682;2022-12-29T01:38:36;1.02;;;0.40;;
71610;SDS011;59459;51.172;6.682;2022-12-29T01:41:02;0.97;;;0.40;;
71610;SDS011;59459;51.172;6.682;2022-12-29T01:46:14;0.88;;;0.45;;
71610;SDS011;59459;51.172;6.682;2022-12-29T01:48:41;0.80;;;0.30;;
71610;SDS011;59459;51.172;6.682;2022-12-29T01:51:06;2.35;;;0.40;;
71610;SDS011;59459;51.172;6.682;2022-12-29T01:53:31;3.20;;;0.97;;
71610;SDS011;59459;51.172;6.682;2022-12-29T01:55:59;2.05;;;0.45;;
71610;SDS011;59459;51.172;6.682;2022-12-29T01:58:26;0.85;;;0.30;;
71610;SDS011;59459;51.172;6.682;2022-12-29T02:00:53;0.98;;;0.50;;
71610;SDS011;59459;51.172;6.682;2022-12-29T02:03:19;1.20;;;0.33;;
71610;SDS011;59459;51.172;6.682;2022-12-29T02:05:58;2.53;;;0.40;;
71610;SDS011;59459;51.172;6.682;2022-12-29T02:08:27;2.33;;;0.40;;
71610;SDS011;59459;51.172;6.682;2022-12-29T02:10:53;1.42;;;0.50;;
71610;SDS011;59459;51.172;6.682;2022-12-29T02:13:18;1.00;;;0.50;;
71610;SDS011;59459;51.172;6.682;2022-12-29T02:15:47;1.30;;;0.40;;
71610;SDS011;59459;51.172;6.682;2022-12-29T02:18:18;2.03;;;0.53;;
71610;SDS011;59459;51.172;6.682;2022-12-29T02:30:57;3.03;;;0.57;;
71610;SDS011;59459;51.172;6.682;2022-12-29T02:45:58;2.55;;;0.68;;
71610;SDS011;59459;51.172;6.682;2022-12-29T02:50:56;1.80;;;0.40;;
71610;SDS011;59459;51.172;6.682;2022-12-29T02:53:23;4.30;;;0.73;;
71610;SDS011;59459;51.172;6.682;2022-12-29T02:56:08;2.60;;;0.50;;
71610;SDS011;59459;51.172;6.682;2022-12-29T02:58:34;2.70;;;0.80;;
71610;SDS011;59459;51.172;6.682;2022-12-29T03:01:13;1.80;;;0.40;;
71610;SDS011;59459;51.172;6.682;2022-12-29T03:06:27;3.97;;;0.52;;
71610;SDS011;59459;51.172;6.682;2022-12-29T03:09:14;1.30;;;0.40;;
71610;SDS011;59459;51.172;6.682;2022-12-29T03:11:59;1.50;;;0.50;;
71610;SDS011;59459;51.172;6.682;2022-12-29T03:14:33;2.35;;;0.40;;
71610;SDS011;59459;51.172;6.682;2022-12-29T03:17:28;2.00;;;0.40;;
71610;SDS011;59459;51.172;6.682;2022-12-29T03:19:58;2.45;;;0.40;;
71610;SDS011;59459;51.172;6.682;2022-12-29T03:22:25;1.30;;;0.40;;
71610;SDS011;59459;51.172;6.682;2022-12-29T03:24:54;2.05;;;0.60;;
71610;SDS011;59459;51.172;6.682;2022-12-29T03:27:22;1.52;;;0.50;;
71610;SDS011;59459;51.172;6.682;2022-12-29T03:29:50;1.97;;;0.40;;
71610;SDS011;59459;51.172;6.682;2022-12-29T03:32:19;3.60;;;0.60;;
71610;SDS011;59459;51.172;6.682;2022-12-29T03:34:45;1.45;;;0.55;;
71610;SDS011;59459;51.172;6.682;2022-12-29T03:37:12;0.98;;;0.40;;
71610;SDS011;59459;51.172;6.682;2022-12-29T03:39:38;1.50;;;0.45;;
71610;SDS011;59459;51.172;6.682;2022-12-29T03:42:05;1.07;;;0.40;;
71610;SDS011;59459;51.172;6.682;2022-12-29T03:44:32;3.08;;;0.57;;
71610;SDS011;59459;51.172;6.682;2022-12-29T03:46:57;2.10;;;0.50;;
71610;SDS011;59459;51.172;6.682;2022-12-29T03:49:23;1.27;;;0.40;;
71610;SDS011;59459;51.172;6.682;2022-12-29T03:51:48;2.05;;;0.40;;
71610;SDS011;59459;51.172;6.682;2022-12-29T03:54:13;0.90;;;0.40;;
71610;SDS011;59459;51.172;6.682;2022-12-29T03:56:38;1.87;;;1.00;;
71610;SDS011;59459;51.172;6.682;2022-12-29T03:59:04;1.00;;;0.50;;
71610;SDS011;59459;51.172;6.682;2022-12-29T04:01:29;1.77;;;0.40;;
71610;SDS011;59459;51.172;6.682;2022-12-29T04:03:54;1.47;;;0.30;;
71610;SDS011;59459;51.172;6.682;2022-12-29T04:06:19;1.20;;;0.40;;
71610;SDS011;59459;51.172;6.682;2022-12-29T04:08:44;0.67;;;0.30;;
71610;SDS011;59459;51.172;6.682;2022-12-29T04:11:09;1.23;;;0.47;;
71610;SDS011;59459;51.172;6.682;2022-12-29T04:13:35;1.43;;;0.40;;
71610;SDS011;59459;51.172;6.682;2022-12-29T04:16:00;1.40;;;0.40;;
71610;SDS011;59459;51.172;6.682;2022-12-29T04:18:25;3.17;;;0.40;;
71610;SDS011;59459;51.172;6.682;2022-12-29T04:20:50;1.47;;;0.40;;
71610;SDS011;59459;51.172;6.682;2022-12-29T04:23:25;1.23;;;0.50;;
71610;SDS011;59459;51.172;6.682;2022-12-29T04:25:50;1.83;;;0.73;;
71610;SDS011;59459;51.172;6.682;2022-12-29T04:28:16;2.67;;;0.40;;
71610;SDS011;59459;51.172;6.682;2022-12-29T04:30:42;1.80;;;0.40;;
71610;SDS011;59459;51.172;6.682;2022-12-29T04:33:07;2.15;;;0.50;;
71610;SDS011;59459;51.172;6.682;2022-12-29T04:35:32;1.30;;;0.50;;
71610;SDS011;59459;51.172;6.682;2022-12-29T04:37:58;1.90;;;0.50;;
71610;SDS011;59459;51.172;6.682;2022-12-29T04:40:23;1.00;;;0.33;;
71610;SDS011;59459;51.172;6.682;2022-12-29T04:42:49;3.38;;;0.50;;
71610;SDS011;59459;51.172;6.682;2022-12-29T04:45:14;2.07;;;0.50;;
71610;SDS011;59459;51.172;6.682;2022-12-29T04:47:39;3.80;;;0.50;;
71610;SDS011;59459;51.172;6.682;2022-12-29T04:50:04;2.43;;;0.50;;
71610;SDS011;59459;51.172;6.682;2022-12-29T04:52:30;2.17;;;0.50;;
71610;SDS011;59459;51.172;6.682;2022-12-29T04:54:55;1.70;;;0.50;;
71610;SDS011;59459;51.172;6.682;2022-12-29T04:57:20;1.30;;;0.40;;
71610;SDS011;59459;51.172;6.682;2022-12-29T04:59:45;2.70;;;0.63;;
71610;SDS011;59459;51.172;6.682;2022-12-29T05:02:10;3.97;;;0.80;;
71610;SDS011;59459;51.172;6.682;2022-12-29T05:04:36;4.43;;;0.73;;
71610;SDS011;59459;51.172;6.682;2022-12-29T05:07:01;1.53;;;0.40;;
71610;SDS011;59459;51.172;6.682;2022-12-29T05:09:26;3.20;;;1.10;;
71610;SDS011;59459;51.172;6.682;2022-12-29T05:11:51;2.93;;;0.70;;
71610;SDS011;59459;51.172;6.682;2022-12-29T05:14:16;1.37;;;0.50;;
71610;SDS011;59459;51.172;6.682;2022-12-29T05:16:42;1.30;;;0.60;;
71610;SDS011;59459;51.172;6.682;2022-12-29T05:19:07;1.17;;;0.53;;
71610;SDS011;59459;51.172;6.682;2022-12-29T05:21:32;2.07;;;0.70;;
71610;SDS011;59459;51.172;6.682;2022-12-29T05:23:57;1.93;;;0.50;;
71610;SDS011;59459;51.172;6.682;2022-12-29T05:26:22;2.73;;;0.47;;
71610;SDS011;59459;51.172;6.682;2022-12-29T05:28:47;3.93;;;0.50;;
71610;SDS011;59459;51.172;6.682;2022-12-29T05:31:13;1.37;;;0.40;;
71610;SDS011;59459;51.172;6.682;2022-12-29T05:33:38;2.03;;;0.50;;
71610;SDS011;59459;51.172;6.682;2022-12-29T05:36:04;3.00;;;0.60;;
71610;SDS011;59459;51.172;6.682;2022-12-29T05:38:29;1.73;;;0.40;;
71610;SDS011;59459;51.172;6.682;2022-12-29T05:40:54;1.23;;;0.60;;
71610;SDS011;59459;51.172;6.682;2022-12-29T05:43:19;3.87;;;0.50;;
71610;SDS011;59459;51.172;6.682;2022-12-29T05:45:47;3.10;;;0.50;;
71610;SDS011;59459;51.172;6.682;2022-12-29T05:48:13;4.30;;;0.70;;
71610;SDS011;59459;51.172;6.682;2022-12-29T05:50:38;4.17;;;0.90;;
71610;SDS011;59459;51.172;6.682;2022-12-29T05:53:03;1.87;;;0.50;;
71610;SDS011;59459;51.172;6.682;2022-12-29T05:55:28;2.93;;;0.53;;
71610;SDS011;59459;51.172;6.682;2022-12-29T05:57:53;1.50;;;0.50;;
71610;SDS011;59459;51.172;6.682;2022-12-29T06:00:19;3.20;;;0.67;;
71610;SDS011;59459;51.172;6.682;2022-12-29T06:02:44;1.90;;;0.60;;
71610;SDS011;59459;51.172;6.682;2022-12-29T06:05:09;2.97;;;0.60;;
71610;SDS011;59459;51.172;6.682;2022-12-29T06:07:34;2.17;;;0.50;;
71610;SDS011;59459;51.172;6.682;2022-12-29T06:09:59;3.10;;;0.60;;
71610;SDS011;59459;51.172;6.682;2022-12-29T06:12:25;1.63;;;0.40;;
71610;SDS011;59459;51.172;6.682;2022-12-29T06:14:50;2.43;;;0.60;;
71610;SDS011;59459;51.172;6.682;2022-12-29T06:17:15;4.97;;;0.70;;
71610;SDS011;59459;51.172;6.682;2022-12-29T06:19:40;2.75;;;0.60;;
71610;SDS011;59459;51.172;6.682;2022-12-29T06:22:05;2.97;;;0.70;;
71610;SDS011;59459;51.172;6.682;2022-12-29T06:24:32;0.80;;;0.47;;
71610;SDS011;59459;51.172;6.682;2022-12-29T06:26:57;2.00;;;0.50;;
71610;SDS011;59459;51.172;6.682;2022-12-29T06:29:22;5.03;;;0.80;;
71610;SDS011;59459;51.172;6.682;2022-12-29T06:31:47;1.87;;;0.47;;
71610;SDS011;59459;51.172;6.682;2022-12-29T06:34:14;1.60;;;0.40;;
71610;SDS011;59459;51.172;6.682;2022-12-29T06:36:39;2.67;;;0.50;;
71610;SDS011;59459;51.172;6.682;2022-12-29T06:39:04;3.03;;;0.60;;
71610;SDS011;59459;51.172;6.682;2022-12-29T06:41:30;3.67;;;0.80;;
71610;SDS011;59459;51.172;6.682;2022-12-29T06:43:55;2.93;;;0.53;;
71610;SDS011;59459;51.172;6.682;2022-12-29T06:46:20;4.47;;;0.50;;
71610;SDS011;59459;51.172;6.682;2022-12-29T06:48:45;4.07;;;0.60;;
71610;SDS011;59459;51.172;6.682;2022-12-29T06:51:11;3.63;;;0.80;;
71610;SDS011;59459;51.172;6.682;2022-12-29T06:53:36;3.70;;;0.60;;
71610;SDS011;59459;51.172;6.682;2022-12-29T06:56:01;2.93;;;0.40;;
71610;SDS011;59459;51.172;6.682;2022-12-29T06:58:26;2.67;;;0.50;;
71610;SDS011;59459;51.172;6.682;2022-12-29T07:00:51;4.20;;;0.50;;
71610;SDS011;59459;51.172;6.682;2022-12-29T07:03:17;2.20;;;0.60;;
71610;SDS011;59459;51.172;6.682;2022-12-29T07:05:42;2.63;;;0.60;;
71610;SDS011;59459;51.172;6.682;2022-12-29T07:08:07;2.93;;;0.43;;
71610;SDS011;59459;51.172;6.682;2022-12-29T07:10:32;1.57;;;0.53;;
71610;SDS011;59459;51.172;6.682;2022-12-29T07:12:58;2.50;;;0.50;;
71610;SDS011;59459;51.172;6.682;2022-12-29T07:15:23;5.70;;;0.80;;
71610;SDS011;59459;51.172;6.682;2022-12-29T07:17:48;4.43;;;0.40;;
71610;SDS011;59459;51.172;6.682;2022-12-29T07:20:14;3.47;;;0.70;;
71610;SDS011;59459;51.172;6.682;2022-12-29T07:22:39;1.93;;;0.60;;
71610;SDS011;59459;51.172;6.682;2022-12-29T07:25:05;4.30;;;0.50;;
71610;SDS011;59459;51.172;6.682;2022-12-29T07:27:30;4.63;;;1.07;;
71610;SDS011;59459;51.172;6.682;2022-12-29T07:29:55;4.43;;;0.90;;
71610;SDS011;59459;51.172;6.682;2022-12-29T07:32:20;7.37;;;1.17;;
71610;SDS011;59459;51.172;6.682;2022-12-29T07:34:46;4.33;;;0.77;;
71610;SDS011;59459;51.172;6.682;2022-12-29T07:37:12;3.50;;;0.82;;
71610;SDS011;59459;51.172;6.682;2022-12-29T07:39:39;3.00;;;0.60;;
71610;SDS011;59459;51.172;6.682;2022-12-29T07:42:04;4.60;;;0.80;;
71610;SDS011;59459;51.172;6.682;2022-12-29T07:44:29;2.90;;;0.67;;
71610;SDS011;59459;51.172;6.682;2022-12-29T07:46:54;4.10;;;1.17;;
71610;SDS011;59459;51.172;6.682;2022-12-29T07:49:19;4.17;;;0.90;;
71610;SDS011;59459;51.172;6.682;2022-12-29T07:51:45;3.77;;;0.50;;
71610;SDS011;59459;51.172;6.682;2022-12-29T07:54:10;4.37;;;0.60;;
71610;SDS011;59459;51.172;6.682;2022-12-29T07:56:37;5.78;;;0.57;;
71610;SDS011;59459;51.172;6.682;2022-12-29T07:59:02;3.40;;;0.60;;
71610;SDS011;59459;51.172;6.682;2022-12-29T08:01:28;3.37;;;0.50;;
71610;SDS011;59459;51.172;6.682;2022-12-29T08:03:53;4.37;;;0.80;;
71610;SDS011;59459;51.172;6.682;2022-12-29T08:06:18;4.80;;;0.70;;
71610;SDS011;59459;51.172;6.682;2022-12-29T08:08:45;2.72;;;0.60;;
71610;SDS011;59459;51.172;6.682;2022-12-29T08:11:10;3.67;;;0.40;;
71610;SDS011;59459;51.172;6.682;2022-12-29T08:13:35;4.77;;;0.77;;
71610;SDS011;59459;51.172;6.682;2022-12-29T08:16:00;3.70;;;0.57;;
71610;SDS011;59459;51.172;6.682;2022-12-29T08:18:25;3.90;;;0.70;;
71610;SDS011;59459;51.172;6.682;2022-12-29T08:20:51;5.70;;;0.87;;
71610;SDS011;59459;51.172;6.682;2022-12-29T08:23:16;1.43;;;0.53;;
71610;SDS011;59459;51.172;6.682;2022-12-29T08:25:41;6.37;;;0.93;;
71610;SDS011;59459;51.172;6.682;2022-12-29T08:28:06;3.40;;;0.60;;
71610;SDS011;59459;51.172;6.682;2022-12-29T08:30:32;5.43;;;0.73;;
71610;SDS011;59459;51.172;6.682;2022-12-29T08:32:57;3.03;;;0.50;;
71610;SDS011;59459;51.172;6.682;2022-12-29T08:35:22;3.73;;;0.90;;
71610;SDS011;59459;51.172;6.682;2022-12-29T08:37:47;3.50;;;0.73;;
71610;SDS011;59459;51.172;6.682;2022-12-29T08:40:12;5.50;;;0.83;;
71610;SDS011;59459;51.172;6.682;2022-12-29T08:42:38;3.37;;;0.70;;
71610;SDS011;59459;51.172;6.682;2022-12-29T08:45:04;6.50;;;0.80;;
71610;SDS011;59459;51.172;6.682;2022-12-29T08:47:29;5.25;;;0.95;;
71610;SDS011;59459;51.172;6.682;2022-12-29T08:49:54;4.90;;;1.00;;
71610;SDS011;59459;51.172;6.682;2022-12-29T08:52:19;4.13;;;0.70;;
71610;SDS011;59459;51.172;6.682;2022-12-29T08:54:45;3.33;;;0.73;;
71610;SDS011;59459;51.172;6.682;2022-12-29T08:57:10;4.17;;;1.03;;
71610;SDS011;59459;51.172;6.682;2022-12-29T08:59:35;6.37;;;0.83;;
71610;SDS011;59459;51.172;6.682;2022-12-29T09:02:00;4.97;;;0.90;;
71610;SDS011;59459;51.172;6.682;2022-12-29T09:04:26;9.70;;;0.80;;
71610;SDS011;59459;51.172;6.682;2022-12-29T09:06:52;4.35;;;0.90;;
71610;SDS011;59459;51.172;6.682;2022-12-29T09:09:17;6.70;;;1.13;;
71610;SDS011;59459;51.172;6.682;2022-12-29T09:11:43;4.03;;;1.00;;
71610;SDS011;59459;51.172;6.682;2022-12-29T09:14:08;3.50;;;1.23;;
71610;SDS011;59459;51.172;6.682;2022-12-29T09:16:33;6.23;;;0.73;;
71610;SDS011;59459;51.172;6.682;2022-12-29T09:18:59;7.67;;;0.67;;
71610;SDS011;59459;51.172;6.682;2022-12-29T09:21:24;4.37;;;0.90;;
71610;SDS011;59459;51.172;6.682;2022-12-29T09:23:49;4.37;;;0.87;;
71610;SDS011;59459;51.172;6.682;2022-12-29T09:26:14;5.97;;;1.03;;
71610;SDS011;59459;51.172;6.682;2022-12-29T09:28:40;4.53;;;1.00;;
71610;SDS011;59459;51.172;6.682;2022-12-29T09:31:05;4.10;;;0.80;;
71610;SDS011;59459;51.172;6.682;2022-12-29T09:33:30;6.57;;;1.10;;
71610;SDS011;59459;51.172;6.682;2022-12-29T09:35:58;5.18;;;0.80;;
71610;SDS011;59459;51.172;6.682;2022-12-29T09:38:24;6.07;;;0.73;;
71610;SDS011;59459;51.172;6.682;2022-12-29T09:40:50;8.40;;;0.90;;
71610;SDS011;59459;51.172;6.682;2022-12-29T09:43:29;6.30;;;1.52;;
71610;SDS011;59459;51.172;6.682;2022-12-29T09:48:40;5.03;;;0.95;;
71610;SDS011;59459;51.172;6.682;2022-12-29T09:51:11;4.70;;;0.93;;
71610;SDS011;59459;51.172;6.682;2022-12-29T09:53:39;7.30;;;1.73;;
71610;SDS011;59459;51.172;6.682;2022-12-29T09:56:05;5.88;;;0.88;;
71610;SDS011;59459;51.172;6.682;2022-12-29T09:58:39;6.60;;;0.88;;
71610;SDS011;59459;51.172;6.682;2022-12-29T10:03:52;4.07;;;1.05;;
71610;SDS011;59459;51.172;6.682;2022-12-29T10:24:23;7.63;;;1.08;;
71610;SDS011;59459;51.172;6.682;2022-12-29T10:26:50;4.80;;;1.00;;
71610;SDS011;59459;51.172;6.682;2022-12-29T10:29:20;4.40;;;0.70;;
71610;SDS011;59459;51.172;6.682;2022-12-29T10:31:47;3.35;;;0.80;;
71610;SDS011;59459;51.172;6.682;2022-12-29T10:34:24;5.80;;;0.90;;
71610;SDS011;59459;51.172;6.682;2022-12-29T10:36:54;6.82;;;1.08;;
71610;SDS011;59459;51.172;6.682;2022-12-29T10:39:37;6.77;;;1.10;;
71610;SDS011;59459;51.172;6.682;2022-12-29T10:42:11;9.50;;;0.80;;
71610;SDS011;59459;51.172;6.682;2022-12-29T10:44:38;7.18;;;1.25;;
71610;SDS011;59459;51.172;6.682;2022-12-29T10:47:07;6.77;;;1.07;;
71610;SDS011;59459;51.172;6.682;2022-12-29T10:49:36;5.97;;;0.90;;
71610;SDS011;59459;51.172;6.682;2022-12-29T10:52:02;7.00;;;0.90;;
71610;SDS011;59459;51.172;6.682;2022-12-29T10:57:00;9.97;;;1.53;;
71610;SDS011;59459;51.172;6.682;2022-12-29T10:59:29;6.28;;;0.80;;
71610;SDS011;59459;51.172;6.682;2022-12-29T11:06:54;6.03;;;1.58;;
71610;SDS011;59459;51.172;6.682;2022-12-29T11:09:22;7.20;;;1.07;;
71610;SDS011;59459;51.172;6.682;2022-12-29T11:11:49;8.18;;;0.82;;
71610;SDS011;59459;51.172;6.682;2022-12-29T11:14:18;9.10;;;0.97;;
71610;SDS011;59459;51.172;6.682;2022-12-29T11:16:44;10.43;;;1.10;;
71610;SDS011;59459;51.172;6.682;2022-12-29T11:19:22;7.97;;;0.90;;
71610;SDS011;59459;51.172;6.682;2022-12-29T11:21:48;6.45;;;0.90;;
71610;SDS011;59459;51.172;6.682;2022-12-29T11:26:45;8.57;;;1.10;;
71610;SDS011;59459;51.172;6.682;2022-12-29T11:31:42;7.73;;;1.20;;
71610;SDS011;59459;51.172;6.682;2022-12-29T11:34:07;9.00;;;1.10;;
71610;SDS011;59459;51.172;6.682;2022-12-29T11:36:33;7.47;;;1.30;;
71610;SDS011;59459;51.172;6.682;2022-12-29T11:38:59;8.73;;;1.30;;
71610;SDS011;59459;51.172;6.682;2022-12-29T11:41:26;9.77;;;1.38;;
71610;SDS011;59459;51.172;6.682;2022-12-29T11:43:52;6.90;;;1.27;;
71610;SDS011;59459;51.172;6.682;2022-12-29T11:46:20;8.60;;;1.33;;
71610;SDS011;59459;51.172;6.682;2022-12-29T11:48:47;8.85;;;0.95;;
71610;SDS011;59459;51.172;6.682;2022-12-29T11:51:13;8.55;;;1.08;;
71610;SDS011;59459;51.172;6.682;2022-12-29T11:53:46;8.27;;;1.03;;
71610;SDS011;59459;51.172;6.682;2022-12-29T11:56:13;7.38;;;0.80;;
71610;SDS011;59459;51.172;6.682;2022-12-29T11:58:39;8.95;;;1.00;;
71610;SDS011;59459;51.172;6.682;2022-12-29T12:06:20;6.30;;;0.70;;
71610;SDS011;59459;51.172;6.682;2022-12-29T12:08:53;6.07;;;0.90;;
71610;SDS011;59459;51.172;6.682;2022-12-29T12:11:23;5.87;;;0.50;;
71610;SDS011;59459;51.172;6.682;2022-12-29T12:13:59;6.28;;;0.90;;
71610;SDS011;59459;51.172;6.682;2022-12-29T12:16:31;4.70;;;0.93;;
71610;SDS011;59459;51.172;6.682;2022-12-29T12:19:01;5.25;;;1.02;;
71610;SDS011;59459;51.172;6.682;2022-12-29T12:21:30;4.70;;;0.75;;
71610;SDS011;59459;51.172;6.682;2022-12-29T12:23:59;5.73;;;0.80;;
71610;SDS011;59459;51.172;6.682;2022-12-29T12:26:28;5.90;;;0.88;;
71610;SDS011;59459;51.172;6.682;2022-12-29T12:34:10;6.63;;;1.20;;
71610;SDS011;59459;51.172;6.682;2022-12-29T12:39:27;10.40;;;1.52;;
71610;SDS011;59459;51.172;6.682;2022-12-29T12:47:16;7.50;;;0.80;;
71610;SDS011;59459;51.172;6.682;2022-12-29T12:52:39;7.40;;;0.93;;
71610;SDS011;59459;51.172;6.682;2022-12-29T13:00:34;10.55;;;1.70;;
71610;SDS011;59459;51.172;6.682;2022-12-29T13:03:21;6.27;;;0.90;;
71610;SDS011;59459;51.172;6.682;2022-12-29T13:06:10;10.45;;;1.13;;
71610;SDS011;59459;51.172;6.682;2022-12-29T13:21:55;5.97;;;1.65;;
71610;SDS011;59459;51.172;6.682;2022-12-29T13:34:51;7.53;;;1.10;;
71610;SDS011;59459;51.172;6.682;2022-12-29T13:37:18;3.58;;;0.52;;
71610;SDS011;59459;51.172;6.682;2022-12-29T13:39:52;6.25;;;0.82;;
71610;SDS011;59459;51.172;6.682;2022-12-29T13:42:19;7.28;;;1.10;;
71610;SDS011;59459;51.172;6.682;2022-12-29T13:44:46;3.90;;;0.60;;
71610;SDS011;59459;51.172;6.682;2022-12-29T13:47:21;5.97;;;0.90;;
71610;SDS011;59459;51.172;6.682;2022-12-29T13:49:50;9.02;;;0.60;;
71610;SDS011;59459;51.172;6.682;2022-12-29T13:52:20;8.27;;;1.15;;
71610;SDS011;59459;51.172;6.682;2022-12-29T14:00:03;7.73;;;1.47;;
71610;SDS011;59459;51.172;6.682;2022-12-29T14:05:04;8.77;;;0.83;;
71610;SDS011;59459;51.172;6.682;2022-12-29T14:07:35;6.78;;;0.63;;
71610;SDS011;59459;51.172;6.682;2022-12-29T14:10:02;4.65;;;0.80;;
71610;SDS011;59459;51.172;6.682;2022-12-29T14:12:38;3.40;;;0.90;;
71610;SDS011;59459;51.172;6.682;2022-12-29T14:17:29;5.10;;;0.70;;
71610;SDS011;59459;51.172;6.682;2022-12-29T14:19:55;5.60;;;0.60;;
71610;SDS011;59459;51.172;6.682;2022-12-29T14:22:24;5.67;;;0.60;;
71610;SDS011;59459;51.172;6.682;2022-12-29T14:24:50;6.28;;;0.88;;
71610;SDS011;59459;51.172;6.682;2022-12-29T14:32:48;5.50;;;1.07;;
71610;SDS011;59459;51.172;6.682;2022-12-29T14:34:55;4.20;;;0.90;;
71610;SDS011;59459;51.172;6.682;2022-12-29T14:42:29;5.50;;;0.80;;
71610;SDS011;59459;51.172;6.682;2022-12-29T14:45:04;5.95;;;0.95;;
71610;SDS011;59459;51.172;6.682;2022-12-29T14:47:34;9.83;;;1.17;;
71610;SDS011;59459;51.172;6.682;2022-12-29T14:50:07;7.68;;;1.52;;
71610;SDS011;59459;51.172;6.682;2022-12-29T14:52:40;9.65;;;1.42;;
71610;SDS011;59459;51.172;6.682;2022-12-29T14:57:48;7.63;;;1.20;;
71610;SDS011;59459;51.172;6.682;2022-12-29T15:00:16;5.83;;;0.80;;
71610;SDS011;59459;51.172;6.682;2022-12-29T15:02:44;6.70;;;1.10;;
71610;SDS011;59459;51.172;6.682;2022-12-29T15:05:20;6.88;;;1.55;;
71610;SDS011;59459;51.172;6.682;2022-12-29T15:07:47;8.48;;;1.42;;
71610;SDS011;59459;51.172;6.682;2022-12-29T15:10:13;5.87;;;1.30;;
71610;SDS011;59459;51.172;6.682;2022-12-29T15:12:48;7.15;;;1.63;;
71610;SDS011;59459;51.172;6.682;2022-12-29T15:17:44;9.37;;;1.57;;
71610;SDS011;59459;51.172;6.682;2022-12-29T15:20:29;5.93;;;1.13;;
71610;SDS011;59459;51.172;6.682;2022-12-29T15:23:00;4.70;;;1.30;;
71610;SDS011;59459;51.172;6.682;2022-12-29T15:25:27;4.47;;;0.80;;
71610;SDS011;59459;51.172;6.682;2022-12-29T15:28:00;4.50;;;1.07;;
71610;SDS011;59459;51.172;6.682;2022-12-29T15:30:26;5.25;;;1.20;;
71610;SDS011;59459;51.172;6.682;2022-12-29T15:32:51;5.60;;;1.30;;
71610;SDS011;59459;51.172;6.682;2022-12-29T15:37:52;4.80;;;1.08;;
71610;SDS011;59459;51.172;6.682;2022-12-29T15:40:27;4.40;;;0.83;;
71610;SDS011;59459;51.172;6.682;2022-12-29T15:43:10;7.80;;;0.98;;
71610;SDS011;59459;51.172;6.682;2022-12-29T15:45:38;6.03;;;0.90;;
71610;SDS011;59459;51.172;6.682;2022-12-29T15:48:03;6.70;;;1.03;;
71610;SDS011;59459;51.172;6.682;2022-12-29T15:50:30;8.17;;;1.67;;
71610;SDS011;59459;51.172;6.682;2022-12-29T15:52:56;5.93;;;1.30;;
71610;SDS011;59459;51.172;6.682;2022-12-29T15:55:32;6.75;;;1.27;;
71610;SDS011;59459;51.172;6.682;2022-12-29T15:57:58;7.85;;;1.75;;
71610;SDS011;59459;51.172;6.682;2022-12-29T16:00:34;8.07;;;1.03;;
71610;SDS011;59459;51.172;6.682;2022-12-29T16:03:01;11.55;;;1.67;;
71610;SDS011;59459;51.172;6.682;2022-12-29T16:05:37;6.55;;;0.95;;
71610;SDS011;59459;51.172;6.682;2022-12-29T16:08:03;9.00;;;1.50;;
71610;SDS011;59459;51.172;6.682;2022-12-29T16:12:56;6.40;;;1.40;;
71610;SDS011;59459;51.172;6.682;2022-12-29T16:15:25;6.88;;;1.70;;
71610;SDS011;59459;51.172;6.682;2022-12-29T16:17:52;11.90;;;1.70;;
71610;SDS011;59459;51.172;6.682;2022-12-29T16:20:24;9.65;;;3.65;;
71610;SDS011;59459;51.172;6.682;2022-12-29T16:22:51;9.40;;;2.08;;
71610;SDS011;59459;51.172;6.682;2022-12-29T16:27:43;8.50;;;1.13;;
71610;SDS011;59459;51.172;6.682;2022-12-29T16:30:25;7.05;;;1.55;;
71610;SDS011;59459;51.172;6.682;2022-12-29T16:32:52;6.45;;;1.08;;
71610;SDS011;59459;51.172;6.682;2022-12-29T16:35:28;10.43;;;2.03;;
71610;SDS011;59459;51.172;6.682;2022-12-29T16:40:49;8.65;;;1.25;;
71610;SDS011;59459;51.172;6.682;2022-12-29T16:43:24;10.23;;;1.48;;
71610;SDS011;59459;51.172;6.682;2022-12-29T16:50:41;7.00;;;1.43;;
71610;SDS011;59459;51.172;6.682;2022-12-29T16:53:16;9.00;;;1.70;;
71610;SDS011;59459;51.172;6.682;2022-12-29T16:55:47;10.40;;;2.30;;
71610;SDS011;59459;51.172;6.682;2022-12-29T16:58:14;7.35;;;1.20;;
71610;SDS011;59459;51.172;6.682;2022-12-29T17:00:41;7.53;;;1.58;;
71610;SDS011;59459;51.172;6.682;2022-12-29T17:03:09;6.78;;;1.17;;
71610;SDS011;59459;51.172;6.682;2022-12-29T17:05:36;10.93;;;1.40;;
71610;SDS011;59459;51.172;6.682;2022-12-29T17:08:01;8.27;;;1.00;;
71610;SDS011;59459;51.172;6.682;2022-12-29T17:10:27;7.13;;;1.17;;
71610;SDS011;59459;51.172;6.682;2022-12-29T17:13:12;7.43;;;1.40;;
71610;SDS011;59459;51.172;6.682;2022-12-29T17:15:37;11.07;;;1.77;;
71610;SDS011;59459;51.172;6.682;2022-12-29T17:18:03;7.70;;;1.87;;
71610;SDS011;59459;51.172;6.682;2022-12-29T17:20:29;8.00;;;2.07;;
71610;SDS011;59459;51.172;6.682;2022-12-29T17:22:55;6.85;;;1.45;;
71610;SDS011;59459;51.172;6.682;2022-12-29T17:25:21;11.13;;;1.70;;
71610;SDS011;59459;51.172;6.682;2022-12-29T17:27:49;9.27;;;1.83;;
71610;SDS011;59459;51.172;6.682;2022-12-29T17:30:16;8.75;;;1.73;;